Time;durP1;ratioP1;P1;durP2;ratioP2;P2;SDS_P1;SDS_P2;PMS_P1;PMS_P2;Temp;Humidity;BMP_temperature;BMP_pressure;BME280_temperature;BME280_humidity;BME280_pressure;Samples;Min_cycle;Max_cycle;Signal;HPM_P1;HPM_P2
2022/09/16 00:01:41;;;;;;;;;;;;;;;66.43;0.39;100676.97;5111263;27;19923;-68
2022/09/16 00:04:07;;;;;;;;;;;;;;;68.17;0.00;100673.72;5110187;27;20396;-67
2022/09/16 00:06:34;;;;;;;;;;;;;;;70.47;0.00;100682.91;5119498;27;20418;-66
2022/09/16 00:09:00;;;;;;;;;;;;;;;67.15;0.00;100675.19;5118951;27;19923;-66
2022/09/16 00:11:27;;;;;;;;;;;;;;;69.77;0.00;100682.06;5114680;27;19971;-67
2022/09/16 00:13:53;;;;;;;;;;;;;;;70.92;0.00;100681.25;5106649;28;19916;-66
2022/09/16 00:16:21;;;;;;;;;;;;;;;68.24;0.00;100672.56;5107768;28;19948;-68
2022/09/16 00:18:48;;;;;;;;;;;;;;;69.69;0.00;100682.53;5106193;28;19927;-68
2022/09/16 00:21:14;;;;;;;;;;;;;;;70.26;0.00;100683.72;5112108;27;19922;-70
2022/09/16 00:23:40;;;;;;;;;;;;;;;69.83;0.00;100678.53;5101126;28;19931;-71
2022/09/16 00:26:07;;;;;;;;;;;;;;;68.90;0.00;100676.66;5108631;28;20410;-70
2022/09/16 00:28:33;;;;;;;;;;;;;;;69.43;0.00;100660.75;5105468;28;19916;-70
2022/09/16 00:31:00;;;;;;;;;;;;;;;71.91;0.00;100686.25;5107887;27;19927;-70
2022/09/16 00:33:26;;;;;;;;;;;;;;;71.12;0.00;100684.88;5107643;28;19915;-71
2022/09/16 00:36:03;;;;;;;;;;;;;;;68.29;0.00;100669.06;5111101;28;20300;-70
2022/09/16 00:38:29;;;;;;;;;;;;;;;67.90;0.00;100675.59;5105289;28;19920;-71
2022/09/16 00:40:56;;;;;;;;;;;;;;;69.03;0.00;100666.75;5107341;28;19920;-71
2022/09/16 00:43:22;;;;;;;;;;;;;;;68.23;0.00;100662.84;5109316;27;19931;-70
2022/09/16 00:46:01;;;;;;;;;;;;;;;68.70;0.00;100664.72;5109363;28;19916;-69
2022/09/16 00:48:29;;;;;;;;;;;;;;;66.66;0.04;100667.00;5102033;28;19931;-68
2022/09/16 00:50:59;;;;;;;;;;;;;;;68.39;0.00;100659.75;5110521;28;19927;-68
2022/09/16 00:53:30;;;;;;;;;;;;;;;68.76;0.00;100670.91;5110046;28;19920;-69
2022/09/16 00:55:58;;;;;;;;;;;;;;;69.34;0.00;100670.88;5107068;28;19924;-70
2022/09/16 00:58:38;;;;;;;;;;;;;;;68.66;0.00;100666.78;5108288;27;19928;-67
2022/09/16 01:01:04;;;;;;;;;;;;;;;67.48;0.03;100662.63;5107989;27;20342;-70
2022/09/16 01:03:34;;;;;;;;;;;;;;;65.23;0.54;100658.94;5111042;28;19920;-71
2022/09/16 01:06:02;;;;;;;;;;;;;;;60.86;3.31;100664.31;5107276;28;19916;-70
2022/09/16 01:08:28;;;;;;;;;;;;;;;62.53;2.34;100652.38;5111513;28;19931;-69
2022/09/16 01:10:55;;;;;;;;;;;;;;;62.01;1.44;100662.16;5106691;28;19920;-68
2022/09/16 01:13:21;;;;;;;;;;;;;;;58.20;4.34;100658.06;5110052;28;19927;-69
2022/09/16 01:15:58;;;;;;;;;;;;;;;59.53;3.77;100659.41;5110129;27;20018;-66
2022/09/16 01:18:27;;;;;;;;;;;;;;;56.51;5.17;100675.34;5105104;27;20306;-69
2022/09/16 01:21:02;;;;;;;;;;;;;;;57.55;4.64;100667.09;5093159;28;19934;-68
2022/09/16 01:23:31;;;;;;;;;;;;;;;57.17;4.94;100663.13;5105450;28;20294;-68
2022/09/16 01:26:19;;;;;;;;;;;;;;;57.21;5.27;100666.38;5106064;28;19924;-68
2022/09/16 01:29:04;;;;;;;;;;;;;;;56.51;6.04;100675.34;5103670;27;19919;-67
2022/09/16 01:31:40;;;;;;;;;;;;;;;55.95;5.71;100680.38;5104378;27;19966;-66
2022/09/16 01:34:18;;;;;;;;;;;;;;;55.63;6.92;100690.50;5106096;28;19984;-68
2022/09/16 01:36:50;;;;;;;;;;;;;;;55.00;7.25;100683.66;5106270;27;19916;-68
2022/09/16 01:39:46;;;;;;;;;;;;;;;54.82;6.60;100682.59;5110713;27;19927;-67
2022/09/16 01:42:31;;;;;;;;;;;;;;;54.54;6.97;100678.41;5089092;28;20373;-69
2022/09/16 01:44:57;;;;;;;;;;;;;;;54.40;6.71;100691.53;5104535;28;20282;-68
2022/09/16 01:47:27;;;;;;;;;;;;;;;54.26;7.75;100687.97;5110513;27;19935;-69
2022/09/16 01:50:05;;;;;;;;;;;;;;;53.95;7.25;100686.97;5088862;28;19915;-68
2022/09/16 01:52:41;;;;;;;;;;;;;;;53.83;6.89;100682.81;5102219;28;19920;-65
2022/09/16 01:55:09;;;;;;;;;;;;;;;53.55;7.12;100685.69;5101543;28;19920;-66
2022/09/16 01:57:54;;;;;;;;;;;;;;;53.46;7.85;100692.00;5102203;27;19934;-68
2022/09/16 02:00:21;;;;;;;;;;;;;;;52.78;8.64;100684.09;5100457;28;19961;-67
2022/09/16 02:02:57;;;;;;;;;;;;;;;52.92;8.10;100690.66;5102784;28;19923;-67
2022/09/16 02:05:27;;;;;;;;;;;;;;;52.93;7.69;100701.69;5101848;27;19920;-67
2022/09/16 02:08:02;;;;;;;;;;;;;;;52.86;8.36;100699.50;5099912;28;19923;-67
2022/09/16 02:10:31;;;;;;;;;;;;;;;52.65;8.71;100702.31;5096789;28;19965;-67
2022/09/16 02:13:01;;;;;;;;;;;;;;;51.94;8.38;100715.59;5098048;28;19963;-67
2022/09/16 02:15:29;;;;;;;;;;;;;;;51.46;8.20;100716.69;5099081;28;19963;-67
2022/09/16 02:18:18;;;;;;;;;;;;;;;51.13;6.74;100711.41;5098535;28;19920;-67
2022/09/16 02:20:45;;;;;;;;;;;;;;;50.97;4.48;100716.88;5100779;28;19926;-68
2022/09/16 02:23:17;;;;;;;;;;;;;;;49.99;3.85;100716.25;5101008;28;20294;-67
2022/09/16 02:25:46;;;;;;;;;;;;;;;50.05;3.20;100724.84;5098863;28;20113;-68
2022/09/16 02:28:28;;;;;;;;;;;;;;;50.11;3.71;100717.69;5099112;28;19931;-68
2022/09/16 02:30:57;;;;;;;;;;;;;;;49.91;3.21;100733.34;5084375;28;19955;-69
2022/09/16 02:33:27;;;;;;;;;;;;;;;50.21;3.55;100732.56;5094594;28;19951;-69
2022/09/16 02:35:54;;;;;;;;;;;;;;;49.65;2.92;100733.09;5096623;28;19966;-69
2022/09/16 02:38:25;;;;;;;;;;;;;;;49.99;4.37;100745.16;5096960;28;19926;-69
2022/09/16 02:40:54;;;;;;;;;;;;;;;50.08;3.66;100735.31;5095751;28;20030;-71
2022/09/16 02:43:21;;;;;;;;;;;;;;;49.88;3.80;100740.22;5095862;28;19920;-67
2022/09/16 02:45:58;;;;;;;;;;;;;;;49.06;3.72;100751.88;5096405;28;19920;-66
2022/09/16 02:48:34;;;;;;;;;;;;;;;48.98;4.21;100759.50;5095509;28;19923;-68
2022/09/16 02:51:15;;;;;;;;;;;;;;;48.98;4.57;100756.63;5095184;28;19919;-68
2022/09/16 02:53:47;;;;;;;;;;;;;;;48.88;4.36;100766.91;5099787;28;20362;-67
2022/09/16 02:56:25;;;;;;;;;;;;;;;49.54;4.09;100762.81;5099220;28;20018;-66
2022/09/16 02:58:52;;;;;;;;;;;;;;;49.13;4.55;100762.06;5097672;28;19973;-66
2022/09/16 03:01:20;;;;;;;;;;;;;;;48.68;4.71;100774.59;5087018;28;19931;-66
2022/09/16 03:03:46;;;;;;;;;;;;;;;49.40;4.97;100769.78;5097292;28;19920;-68
2022/09/16 03:06:14;;;;;;;;;;;;;;;49.07;4.29;100770.75;5096406;28;19923;-69
2022/09/16 03:08:41;;;;;;;;;;;;;;;49.22;5.00;100771.19;5098705;28;19919;-70
2022/09/16 03:11:15;;;;;;;;;;;;;;;48.30;4.89;100775.44;5097047;28;19932;-67
2022/09/16 03:14:03;;;;;;;;;;;;;;;48.80;5.02;100774.53;5083085;28;20038;-66
2022/09/16 03:16:34;;;;;;;;;;;;;;;47.25;5.68;100790.06;5095773;28;20382;-66
2022/09/16 03:19:10;;;;;;;;;;;;;;;48.37;5.06;100781.47;5096643;28;19967;-66
2022/09/16 03:22:02;;;;;;;;;;;;;;;48.30;5.74;100778.34;5104179;28;19977;-68
2022/09/16 03:24:47;;;;;;;;;;;;;;;47.14;6.03;100795.75;5093210;28;19920;-65
2022/09/16 03:27:29;;;;;;;;;;;;;;;48.56;5.39;100792.44;5110541;28;19924;-68
2022/09/16 03:29:59;;;;;;;;;;;;;;;48.69;5.60;100787.69;5089299;28;20294;-66
2022/09/16 03:32:32;;;;;;;;;;;;;;;48.99;6.55;100792.84;5111005;27;19924;-67
2022/09/16 03:35:11;;;;;;;;;;;;;;;49.05;5.86;100795.72;5110963;28;20365;-68
2022/09/16 03:37:39;;;;;;;;;;;;;;;48.34;5.77;100810.59;5113578;28;20294;-67
2022/09/16 03:40:09;;;;;;;;;;;;;;;48.03;6.22;100812.44;5112877;28;20340;-68
2022/09/16 03:42:39;;;;;;;;;;;;;;;48.52;5.60;100803.47;5111125;28;19928;-67
2022/09/16 03:45:06;;;;;;;;;;;;;;;48.32;6.61;100810.34;5112798;28;19920;-69
2022/09/16 03:47:33;;;;;;;;;;;;;;;48.80;6.47;100809.16;5112628;28;19924;-70
2022/09/16 03:49:59;;;;;;;;;;;;;;;47.89;6.25;100819.25;5114327;28;19920;-67
2022/09/16 03:52:27;;;;;;;;;;;;;;;48.59;6.66;100817.38;5112707;28;19915;-69
2022/09/16 03:54:53;;;;;;;;;;;;;;;48.65;5.81;100816.03;5106365;28;19920;-69
2022/09/16 03:57:21;;;;;;;;;;;;;;;48.78;6.32;100809.69;5113256;27;19922;-71
2022/09/16 03:59:47;;;;;;;;;;;;;;;48.80;6.59;100815.72;5109941;28;20333;-68
2022/09/16 04:02:13;;;;;;;;;;;;;;;48.86;6.18;100819.38;5114395;28;20011;-72
2022/09/16 04:04:40;;;;;;;;;;;;;;;49.01;6.77;100810.41;5110230;28;19920;-69
2022/09/16 04:07:06;;;;;;;;;;;;;;;48.84;6.13;100819.13;5107561;27;20337;-67
2022/09/16 04:09:32;;;;;;;;;;;;;;;48.44;6.20;100817.63;5110411;28;20333;-68
2022/09/16 04:11:58;;;;;;;;;;;;;;;48.56;6.09;100818.41;5113942;28;19923;-69
2022/09/16 04:14:25;;;;;;;;;;;;;;;48.37;5.84;100823.94;5111617;28;19926;-69
2022/09/16 04:16:51;;;;;;;;;;;;;;;48.31;5.85;100826.06;5112583;28;20003;-69
2022/09/16 04:19:17;;;;;;;;;;;;;;;47.21;5.96;100823.25;5111781;28;19924;-70
2022/09/16 04:21:44;;;;;;;;;;;;;;;46.32;6.11;100830.03;5113167;28;19926;-67
2022/09/16 04:24:10;;;;;;;;;;;;;;;46.35;6.53;100828.25;5107032;28;20030;-68
2022/09/16 04:26:36;;;;;;;;;;;;;;;46.90;6.34;100824.19;5092872;28;19968;-68
2022/09/16 04:29:03;;;;;;;;;;;;;;;46.37;6.13;100825.66;5110676;28;19919;-70
2022/09/16 04:31:29;;;;;;;;;;;;;;;47.02;5.81;100822.09;5089795;28;20347;-68
2022/09/16 04:33:56;;;;;;;;;;;;;;;47.09;5.95;100821.63;5094068;28;20497;-69
2022/09/16 04:36:22;;;;;;;;;;;;;;;47.62;5.92;100825.75;5108014;27;19928;-69
2022/09/16 04:38:48;;;;;;;;;;;;;;;47.64;5.76;100821.03;5110953;27;19951;-68
2022/09/16 04:41:18;;;;;;;;;;;;;;;48.11;5.98;100827.88;5112768;28;19923;-69
2022/09/16 04:43:45;;;;;;;;;;;;;;;48.05;5.89;100829.97;5108955;27;19916;-69
2022/09/16 04:46:12;;;;;;;;;;;;;;;47.82;5.50;100819.75;5111151;28;19927;-69
2022/09/16 04:48:38;;;;;;;;;;;;;;;47.90;5.48;100826.56;5105222;28;19972;-67
2022/09/16 04:51:07;;;;;;;;;;;;;;;47.46;6.05;100819.41;5109100;27;20377;-68
2022/09/16 04:53:33;;;;;;;;;;;;;;;47.24;7.02;100822.25;5109672;28;20238;-67
2022/09/16 04:56:05;;;;;;;;;;;;;;;47.39;7.07;100828.53;5104548;27;21104;-67
2022/09/16 04:58:31;;;;;;;;;;;;;;;48.02;6.88;100825.28;5128229;27;19924;-68
2022/09/16 05:01:02;;;;;;;;;;;;;;;48.19;7.17;100827.34;5130601;27;20173;-69
2022/09/16 05:03:29;;;;;;;;;;;;;;;48.07;6.52;100833.13;5110021;27;19928;-69
2022/09/16 05:06:02;;;;;;;;;;;;;;;48.13;6.82;100828.16;5096547;28;20286;-69
2022/09/16 05:08:29;;;;;;;;;;;;;;;47.97;6.87;100831.03;5110528;28;20270;-68
2022/09/16 05:10:55;;;;;;;;;;;;;;;47.97;6.82;100837.59;5112288;28;19920;-68
2022/09/16 05:13:22;;;;;;;;;;;;;;;47.64;7.36;100831.78;5113258;28;19935;-67
2022/09/16 05:15:48;;;;;;;;;;;;;;;47.45;7.37;100842.97;5125530;27;19923;-68
2022/09/16 05:18:15;;;;;;;;;;;;;;;47.63;7.74;100850.38;5125897;27;19970;-69
2022/09/16 05:20:41;;;;;;;;;;;;;;;47.41;7.87;100853.97;5096900;28;20078;-69
2022/09/16 05:23:07;;;;;;;;;;;;;;;47.23;7.57;100856.00;5096677;28;19924;-69
2022/09/16 05:25:33;;;;;;;;;;;;;;;47.25;7.86;100852.59;5102463;27;19916;-68
2022/09/16 05:28:00;;;;;;;;;;;;;;;47.42;8.00;100850.56;5112344;28;19977;-68
2022/09/16 05:30:26;;;;;;;;;;;;;;;47.47;7.92;100854.75;5108493;27;19916;-68
2022/09/16 05:32:53;;;;;;;;;;;;;;;47.45;7.51;100848.72;5117831;27;19928;-69
2022/09/16 05:35:20;;;;;;;;;;;;;;;47.27;7.67;100855.75;5113149;28;20316;-68
2022/09/16 05:37:48;;;;;;;;;;;;;;;46.83;7.94;100859.16;5087739;28;19927;-69
2022/09/16 05:40:14;;;;;;;;;;;;;;;46.62;7.87;100853.53;5103146;27;19919;-69
2022/09/16 05:42:41;;;;;;;;;;;;;;;46.14;8.32;100859.16;5097615;28;20447;-69
2022/09/16 05:45:08;;;;;;;;;;;;;;;46.42;8.20;100858.63;5100933;28;19919;-69
2022/09/16 05:47:34;;;;;;;;;;;;;;;46.13;8.49;100856.81;5100802;28;19919;-68
2022/09/16 05:50:01;;;;;;;;;;;;;;;45.65;9.17;100858.19;5100996;27;19943;-69
2022/09/16 05:52:27;;;;;;;;;;;;;;;45.34;9.55;100849.44;5109164;28;19927;-69
2022/09/16 05:54:53;;;;;;;;;;;;;;;45.98;8.74;100851.97;5090809;28;19912;-67
2022/09/16 05:57:20;;;;;;;;;;;;;;;44.99;9.75;100855.25;5104991;28;20445;-68
2022/09/16 05:59:46;;;;;;;;;;;;;;;44.93;10.01;100858.06;5104854;28;20002;-66
2022/09/16 06:02:12;;;;;;;;;;;;;;;45.45;9.35;100847.50;5103614;28;19920;-68
2022/09/16 06:04:39;;;;;;;;;;;;;;;45.00;9.92;100848.22;5106785;27;19985;-68
2022/09/16 06:07:06;;;;;;;;;;;;;;;44.89;9.93;100854.63;5104713;28;19923;-66
2022/09/16 06:09:32;;;;;;;;;;;;;;;45.26;9.50;100851.19;5113224;28;19920;-70
2022/09/16 06:11:58;;;;;;;;;;;;;;;44.98;9.81;100848.72;5099948;28;20404;-66
2022/09/16 06:14:25;;;;;;;;;;;;;;;45.50;9.18;100851.72;5117890;27;20321;-67
2022/09/16 06:16:51;;;;;;;;;;;;;;;44.83;9.83;100842.22;5111175;27;19980;-67
2022/09/16 06:19:18;;;;;;;;;;;;;;;44.83;9.59;100847.97;5112079;28;19927;-67
2022/09/16 06:21:45;;;;;;;;;;;;;;;45.89;9.00;100842.72;5111312;28;19927;-67
2022/09/16 06:24:12;;;;;;;;;;;;;;;46.27;8.83;100839.41;5112277;28;20019;-66
2022/09/16 06:26:39;;;;;;;;;;;;;;;46.14;8.89;100838.25;5107331;28;19928;-66
2022/09/16 06:29:06;;;;;;;;;;;;;;;46.50;8.60;100839.59;5101700;28;19954;-66
2022/09/16 06:31:33;;;;;;;;;;;;;;;46.42;8.79;100839.28;5096988;28;19927;-66
2022/09/16 06:34:00;;;;;;;;;;;;;;;45.83;8.56;100828.31;5106907;28;20015;-66
2022/09/16 06:36:30;;;;;;;;;;;;;;;45.85;8.99;100834.34;5113279;27;19922;-67
2022/09/16 06:38:57;;;;;;;;;;;;;;;45.08;9.27;100832.94;5104398;28;19920;-66
2022/09/16 06:41:23;;;;;;;;;;;;;;;45.15;8.92;100829.63;5106812;28;19922;-67
2022/09/16 06:43:50;;;;;;;;;;;;;;;45.63;8.93;100826.31;5079879;28;19930;-67
2022/09/16 06:46:19;;;;;;;;;;;;;;;45.95;8.11;100829.97;5105099;28;19942;-67
2022/09/16 06:48:46;;;;;;;;;;;;;;;45.80;8.81;100828.56;5101740;28;19919;-66
2022/09/16 06:51:14;;;;;;;;;;;;;;;45.92;9.03;100833.88;5102782;28;19954;-66
2022/09/16 06:53:42;;;;;;;;;;;;;;;45.67;8.20;100831.81;5110082;28;20416;-67
2022/09/16 06:56:12;;;;;;;;;;;;;;;45.59;8.21;100830.66;5089868;28;19927;-66
2022/09/16 06:58:40;;;;;;;;;;;;;;;45.55;8.21;100824.34;5104534;28;19930;-67
2022/09/16 07:01:10;;;;;;;;;;;;;;;44.68;8.96;100824.28;5088497;28;19975;-67
2022/09/16 07:03:38;;;;;;;;;;;;;;;44.96;8.85;100825.47;5110181;28;20402;-66
2022/09/16 07:06:04;;;;;;;;;;;;;;;44.71;8.74;100826.16;5098926;28;19916;-67
2022/09/16 07:08:31;;;;;;;;;;;;;;;44.33;9.12;100825.03;5107347;28;20396;-66
2022/09/16 07:10:57;;;;;;;;;;;;;;;43.87;9.35;100827.66;5102313;28;20391;-66
2022/09/16 07:13:23;;;;;;;;;;;;;;;44.03;9.20;100823.50;5104865;28;19974;-67
2022/09/16 07:15:50;;;;;;;;;;;;;;;44.42;9.22;100816.34;5102845;28;19953;-66
2022/09/16 07:18:16;;;;;;;;;;;;;;;43.77;9.31;100823.28;5104123;28;20016;-66
2022/09/16 07:20:44;;;;;;;;;;;;;;;44.39;9.01;100819.41;5107723;28;20112;-66
2022/09/16 07:23:10;;;;;;;;;;;;;;;45.19;8.20;100824.47;5103178;28;20297;-65
2022/09/16 07:25:36;;;;;;;;;;;;;;;45.11;8.45;100820.47;5096047;28;20028;-66
2022/09/16 07:28:03;;;;;;;;;;;;;;;44.75;8.49;100824.66;5096873;28;19925;-66
2022/09/16 07:30:29;;;;;;;;;;;;;;;44.17;8.31;100823.53;5107821;28;20385;-67
2022/09/16 07:32:56;;;;;;;;;;;;;;;44.41;8.56;100826.22;5110805;28;20408;-68
2022/09/16 07:35:22;;;;;;;;;;;;;;;44.51;8.31;100824.81;5118605;28;20423;-66
2022/09/16 07:37:49;;;;;;;;;;;;;;;45.04;7.99;100818.00;5108032;28;19928;-66
2022/09/16 07:40:16;;;;;;;;;;;;;;;44.85;8.11;100813.81;5107287;28;19920;-66
2022/09/16 07:42:42;;;;;;;;;;;;;;;44.73;8.01;100817.84;5106230;28;20397;-68
2022/09/16 07:45:08;;;;;;;;;;;;;;;44.74;7.81;100814.47;5104782;28;19930;-65
2022/09/16 07:47:35;;;;;;;;;;;;;;;44.74;7.92;100814.47;5101612;28;19923;-65
2022/09/16 07:50:01;;;;;;;;;;;;;;;44.67;8.53;100816.97;5111119;28;20417;-65
2022/09/16 07:52:30;;;;;;;;;;;;;;;44.79;8.00;100815.84;5104387;28;19924;-66
2022/09/16 07:54:56;;;;;;;;;;;;;;;44.81;8.21;100814.03;5108443;28;19911;-65
2022/09/16 07:57:23;;;;;;;;;;;;;;;44.76;7.80;100809.03;5106771;28;19927;-65
2022/09/16 07:59:49;;;;;;;;;;;;;;;44.66;8.02;100813.31;5104903;28;19912;-65
2022/09/16 08:02:16;;;;;;;;;;;;;;;44.75;7.62;100812.41;5099508;28;20638;-66
2022/09/16 08:04:42;;;;;;;;;;;;;;;44.91;7.76;100813.94;5112276;28;19916;-66
2022/09/16 08:07:08;;;;;;;;;;;;;;;44.56;7.74;100812.66;5109986;28;19989;-66
2022/09/16 08:09:36;;;;;;;;;;;;;;;44.15;7.88;100808.09;5103833;28;20377;-65
2022/09/16 08:12:04;;;;;;;;;;;;;;;44.18;7.71;100807.13;5096313;28;20382;-67
2022/09/16 08:14:30;;;;;;;;;;;;;;;44.14;7.71;100806.50;5108392;27;19977;-67
2022/09/16 08:16:56;;;;;;;;;;;;;;;44.33;7.56;100813.56;5096199;27;20278;-67
2022/09/16 08:19:22;;;;;;;;;;;;;;;44.66;7.55;100824.00;5096152;28;19927;-66
2022/09/16 08:21:50;;;;;;;;;;;;;;;44.74;7.72;100816.56;5096301;27;19947;-66
2022/09/16 08:24:16;;;;;;;;;;;;;;;44.77;8.11;100810.59;5096225;27;20282;-66
2022/09/16 08:26:42;;;;;;;;;;;;;;;44.70;7.68;100818.81;5109930;27;19924;-67
2022/09/16 08:29:08;;;;;;;;;;;;;;;44.70;7.81;100807.34;5108540;28;20343;-66
2022/09/16 08:31:35;;;;;;;;;;;;;;;44.60;8.71;100810.38;5097475;27;19939;-66
2022/09/16 08:34:01;;;;;;;;;;;;;;;44.14;8.04;100813.03;5111970;28;20010;-66
2022/09/16 08:36:28;;;;;;;;;;;;;;;44.26;8.67;100814.00;5109709;28;19916;-66
2022/09/16 08:38:55;;;;;;;;;;;;;;;44.40;8.29;100813.19;5107586;27;19954;-66
2022/09/16 08:41:36;;;;;;;;;;;;;;;44.62;7.86;100820.56;5124433;27;19962;-66
2022/09/16 08:44:03;;;;;;;;;;;;;;;44.62;8.14;100820.56;5129743;27;19938;-66
2022/09/16 08:46:43;;;;;;;;;;;;;;;44.38;8.19;100815.75;5130976;27;19920;-66
2022/09/16 08:49:12;;;;;;;;;;;;;;;43.59;8.57;100821.38;5133671;27;19965;-66
2022/09/16 08:51:38;;;;;;;;;;;;;;;42.70;9.00;100818.22;5106248;27;19915;-66
2022/09/16 08:54:24;;;;;;;;;;;;;;;43.41;8.64;100819.47;5110046;28;19927;-66
2022/09/16 08:56:52;;;;;;;;;;;;;;;43.41;8.33;100820.28;5092467;28;20329;-66
2022/09/16 08:59:22;;;;;;;;;;;;;;;43.88;8.39;100812.84;5111549;28;19920;-66
2022/09/16 09:02:00;;;;;;;;;;;;;;;43.13;8.51;100818.91;5114493;28;20071;-66
2022/09/16 09:04:26;;;;;;;;;;;;;;;43.89;8.57;100808.69;5102198;28;20250;-66
2022/09/16 09:07:00;;;;;;;;;;;;;;;44.15;8.01;100813.81;5107396;28;19916;-66
2022/09/16 09:09:26;;;;;;;;;;;;;;;44.04;7.82;100808.69;5077953;28;20275;-67
2022/09/16 09:12:05;;;;;;;;;;;;;;;44.13;7.87;100799.97;5096459;28;19923;-66
2022/09/16 09:14:58;;;;;;;;;;;;;;;44.27;8.19;100802.03;5098206;27;20377;-66
2022/09/16 09:17:37;;;;;;;;;;;;;;;44.14;8.46;100806.50;5104230;28;19919;-66
2022/09/16 09:20:15;;;;;;;;;;;;;;;44.31;8.52;100802.63;5129188;27;20323;-66
2022/09/16 09:22:41;;;;;;;;;;;;;;;44.22;8.51;100801.97;5122862;27;19930;-66
2022/09/16 09:25:26;;;;;;;;;;;;;;;44.11;7.95;100802.56;5133232;27;20426;-66
2022/09/16 09:28:10;;;;;;;;;;;;;;;44.15;8.05;100796.63;5105955;27;20452;-66
2022/09/16 09:30:39;;;;;;;;;;;;;;;43.84;7.87;100805.72;5113014;28;20010;-66
2022/09/16 09:33:08;;;;;;;;;;;;;;;44.14;8.30;100795.84;5107509;28;19915;-66
2022/09/16 09:35:37;;;;;;;;;;;;;;;44.12;7.80;100803.34;5095772;28;19916;-66
2022/09/16 09:38:03;;;;;;;;;;;;;;;44.03;7.83;100803.44;5095288;28;19923;-66
2022/09/16 09:40:34;;;;;;;;;;;;;;;43.96;8.22;100807.47;5097798;27;19916;-66
2022/09/16 09:43:07;;;;;;;;;;;;;;;43.84;8.47;100815.13;5095501;28;19924;-66
2022/09/16 09:45:59;;;;;;;;;;;;;;;43.65;8.46;100816.56;5081492;28;19920;-66
2022/09/16 09:48:40;;;;;;;;;;;;;;;43.61;8.73;100815.94;5095369;27;19962;-66
2022/09/16 09:51:20;;;;;;;;;;;;;;;43.58;8.70;100814.88;5097532;28;19928;-67
2022/09/16 09:53:52;;;;;;;;;;;;;;;43.50;9.19;100819.41;5092673;28;19920;-66
2022/09/16 09:56:34;;;;;;;;;;;;;;;43.69;9.10;100817.97;5104533;27;19953;-68
2022/09/16 09:59:16;;;;;;;;;;;;;;;43.54;8.27;100817.13;5102717;27;20383;-66
2022/09/16 10:01:42;;;;;;;;;;;;;;;43.00;8.65;100818.38;5106246;27;19924;-65
2022/09/16 10:04:17;;;;;;;;;;;;;;;42.97;8.15;100813.63;5102226;27;19927;-68
2022/09/16 10:06:44;;;;;;;;;;;;;;;43.22;8.18;100815.16;5106078;27;19934;-66
2022/09/16 10:09:13;;;;;;;;;;;;;;;42.53;8.65;100805.59;5109285;27;19926;-66
2022/09/16 10:12:05;;;;;;;;;;;;;;;43.01;8.28;100805.66;5107297;28;20022;-65
2022/09/16 10:14:33;;;;;;;;;;;;;;;43.23;8.30;100808.97;5108930;27;20369;-66
2022/09/16 10:17:01;;;;;;;;;;;;;;;43.06;8.30;100811.47;5104595;27;19935;-66
2022/09/16 10:19:30;;;;;;;;;;;;;;;43.29;8.02;100809.91;5107179;27;19919;-67
2022/09/16 10:22:10;;;;;;;;;;;;;;;43.28;7.84;100816.88;5106636;27;19923;-66
2022/09/16 10:24:41;;;;;;;;;;;;;;;43.67;7.69;100816.88;5110793;27;20131;-66
2022/09/16 10:27:18;;;;;;;;;;;;;;;43.93;7.87;100814.22;5108512;28;19920;-66
2022/09/16 10:29:44;;;;;;;;;;;;;;;44.04;8.23;100805.03;5101343;27;19989;-66
2022/09/16 10:32:14;;;;;;;;;;;;;;;43.99;7.59;100813.03;5109833;27;19916;-66
2022/09/16 10:34:41;;;;;;;;;;;;;;;43.97;7.73;100809.84;5077077;28;19924;-66
2022/09/16 10:37:11;;;;;;;;;;;;;;;43.84;7.91;100806.53;5100331;27;20010;-66
2022/09/16 10:39:43;;;;;;;;;;;;;;;43.83;8.30;100804.16;5105695;28;20405;-66
2022/09/16 10:42:19;;;;;;;;;;;;;;;43.70;7.99;100801.59;5099535;28;19927;-66
2022/09/16 10:44:47;;;;;;;;;;;;;;;43.65;8.91;100802.25;5102649;27;19942;-66
2022/09/16 10:47:21;;;;;;;;;;;;;;;43.65;8.21;100800.19;5107954;28;19927;-66
2022/09/16 10:49:52;;;;;;;;;;;;;;;43.37;7.98;100805.38;5103819;28;20019;-64
2022/09/16 10:52:23;;;;;;;;;;;;;;;43.49;7.73;100802.72;5103047;28;19923;-67
2022/09/16 10:54:50;;;;;;;;;;;;;;;43.54;7.70;100804.91;5102349;28;19924;-69
2022/09/16 10:57:30;;;;;;;;;;;;;;;43.69;7.75;100800.78;5105173;28;19920;-68
2022/09/16 10:59:56;;;;;;;;;;;;;;;43.68;7.53;100804.91;5105918;28;20359;-67
2022/09/16 11:02:43;;;;;;;;;;;;;;;43.15;8.40;100819.22;5105369;28;19970;-67
2022/09/16 11:05:22;;;;;;;;;;;;;;;43.19;8.70;100816.16;5113699;27;19923;-66
2022/09/16 11:07:57;;;;;;;;;;;;;;;43.36;8.88;100808.72;5116110;28;20057;-66
2022/09/16 11:10:26;;;;;;;;;;;;;;;43.35;8.48;100818.59;5115985;28;19968;-66
2022/09/16 11:13:13;;;;;;;;;;;;;;;43.33;8.46;100807.63;5122956;28;19956;-66
2022/09/16 11:16:06;;;;;;;;;;;;;;;43.23;8.66;100808.16;5113535;28;19968;-65
2022/09/16 11:18:53;;;;;;;;;;;;;;;43.05;9.19;100809.91;5101135;28;19920;-66
2022/09/16 11:21:31;;;;;;;;;;;;;;;43.22;8.66;100813.09;5107769;28;19927;-67
2022/09/16 11:24:16;;;;;;;;;;;;;;;43.16;8.88;100820.78;5108106;28;19920;-68
2022/09/16 11:27:04;;;;;;;;;;;;;;;43.22;8.96;100815.16;5108094;28;19943;-66
2022/09/16 11:29:48;;;;;;;;;;;;;;;43.18;9.26;100817.44;5113295;28;20285;-66
2022/09/16 11:32:27;;;;;;;;;;;;;;;43.04;9.08;100824.69;5099399;28;19927;-67
2022/09/16 11:35:16;;;;;;;;;;;;;;;43.06;9.28;100827.84;5102890;28;19920;-66
2022/09/16 11:38:02;;;;;;;;;;;;;;;43.10;9.15;100829.25;5108498;28;19920;-66
2022/09/16 11:40:44;;;;;;;;;;;;;;;43.13;9.10;100833.22;5129940;27;19924;-66
2022/09/16 11:43:16;;;;;;;;;;;;;;;43.12;9.65;100835.28;5111990;27;19923;-66
2022/09/16 11:45:55;;;;;;;;;;;;;;;43.03;9.59;100829.63;5111888;27;19920;-65
2022/09/16 11:48:36;;;;;;;;;;;;;;;42.96;9.88;100830.00;5130054;27;20280;-65
2022/09/16 11:51:08;;;;;;;;;;;;;;;42.88;9.84;100833.66;5109492;27;20373;-66
2022/09/16 11:53:34;;;;;;;;;;;;;;;42.95;10.04;100841.94;5114352;27;19920;-66
2022/09/16 11:56:08;;;;;;;;;;;;;;;43.03;10.08;100835.34;5125684;27;19912;-65
2022/09/16 11:58:46;;;;;;;;;;;;;;;42.81;9.83;100841.34;5083936;27;20311;-66
2022/09/16 12:01:18;;;;;;;;;;;;;;;42.67;9.86;100844.91;5119887;27;19916;-66
2022/09/16 12:03:53;;;;;;;;;;;;;;;42.88;10.50;100848.75;5120681;27;19919;-67
2022/09/16 12:06:21;;;;;;;;;;;;;;;42.80;10.23;100853.25;5102094;27;20366;-65
2022/09/16 12:08:52;;;;;;;;;;;;;;;42.82;10.12;100857.22;5127064;27;19984;-66
2022/09/16 12:11:26;;;;;;;;;;;;;;;42.81;10.35;100854.84;5113486;27;19980;-65
2022/09/16 12:13:56;;;;;;;;;;;;;;;42.79;10.56;100848.81;5109401;27;19920;-65
2022/09/16 12:16:30;;;;;;;;;;;;;;;42.83;10.32;100855.94;5129510;27;19926;-66
2022/09/16 12:19:01;;;;;;;;;;;;;;;42.83;10.50;100861.66;5107531;27;19923;-65
2022/09/16 12:21:33;;;;;;;;;;;;;;;42.87;10.73;100864.34;5116010;27;19916;-65
2022/09/16 12:24:15;;;;;;;;;;;;;;;42.75;10.60;100859.66;5125317;27;19923;-65
2022/09/16 12:26:47;;;;;;;;;;;;;;;42.61;10.85;100866.88;5099454;28;20336;-65
2022/09/16 12:29:17;;;;;;;;;;;;;;;42.75;10.75;100865.38;5107616;28;19927;-65
2022/09/16 12:31:50;;;;;;;;;;;;;;;42.43;10.86;100862.00;5118206;27;19916;-66
2022/09/16 12:34:32;;;;;;;;;;;;;;;42.65;10.78;100872.41;5115545;28;19920;-65
2022/09/16 12:37:07;;;;;;;;;;;;;;;42.61;10.68;100878.31;5107977;27;19915;-67
2022/09/16 12:39:33;;;;;;;;;;;;;;;42.63;10.69;100878.63;5114078;27;20018;-65
2022/09/16 12:42:11;;;;;;;;;;;;;;;42.57;10.58;100882.63;5124512;27;19919;-66
2022/09/16 12:45:05;;;;;;;;;;;;;;;42.53;11.12;100874.19;5102263;27;19938;-65
2022/09/16 12:47:47;;;;;;;;;;;;;;;42.44;11.27;100885.66;5114322;27;19920;-66
2022/09/16 12:50:25;;;;;;;;;;;;;;;42.42;11.09;100882.50;5128091;27;19938;-66
2022/09/16 12:52:54;;;;;;;;;;;;;;;42.46;11.30;100888.81;5082125;28;19920;-66
2022/09/16 12:55:39;;;;;;;;;;;;;;;42.50;11.35;100884.53;5106107;28;19966;-66
2022/09/16 12:58:24;;;;;;;;;;;;;;;42.42;11.72;100882.50;5126265;27;19919;-65
2022/09/16 13:01:09;;;;;;;;;;;;;;;42.20;11.91;100894.16;5100045;28;19935;-65
2022/09/16 13:03:41;;;;;;;;;;;;;;;42.32;11.82;100889.50;5114977;28;19962;-65
2022/09/16 13:06:22;;;;;;;;;;;;;;;42.20;12.07;100889.22;5099441;28;19949;-64